Time;durP1;ratioP1;P1;durP2;ratioP2;P2;SDS_P1;SDS_P2;PMS_P1;PMS_P2;Temp;Humidity;BMP_temperature;BMP_pressure;BME280_temperature;BME280_humidity;BME280_pressure;Samples;Min_cycle;Max_cycle;Signal;HPM_P1;HPM_P2
2023/09/21 00:00:44;;;;;;;8.27;4.78;;;;;;;;;;4989061;28;20571;-76
2023/09/21 00:03:12;;;;;;;4.57;4.18;;;;;;;;;;5059917;28;20594;-76
2023/09/21 00:05:39;;;;;;;7.22;5.13;;;;;;;;;;5061082;28;20033;-77
2023/09/21 00:08:06;;;;;;;6.60;4.63;;;;;;;;;;4992881;28;20039;-76
2023/09/21 00:10:32;;;;;;;6.13;4.90;;;;;;;;;;4993938;28;20494;-77
2023/09/21 00:12:59;;;;;;;6.15;4.57;;;;;;;;;;5060934;28;20575;-76
2023/09/21 00:15:34;;;;;;;7.50;5.03;;;;;;;;;;4994142;28;20057;-78
2023/09/21 00:18:00;;;;;;;6.20;3.92;;;;;;;;;;4994095;28;20022;-76
2023/09/21 00:20:36;;;;;;;4.90;4.35;;;;;;;;;;4980811;28;20083;-76
2023/09/21 00:23:05;;;;;;;6.50;3.95;;;;;;;;;;4972620;28;20038;-74
2023/09/21 00:25:30;;;;;;;4.40;3.83;;;;;;;;;;5037726;28;20078;-76
2023/09/21 00:27:56;;;;;;;7.13;3.78;;;;;;;;;;4971077;28;20043;-76
2023/09/21 00:30:21;;;;;;;5.88;3.92;;;;;;;;;;4970247;28;20049;-76
2023/09/21 00:32:47;;;;;;;5.63;4.22;;;;;;;;;;4971119;28;20030;-76
2023/09/21 00:35:15;;;;;;;6.18;4.07;;;;;;;;;;4970842;28;20582;-77
2023/09/21 00:37:41;;;;;;;6.57;4.07;;;;;;;;;;5038187;28;20039;-77
2023/09/21 00:40:15;;;;;;;4.72;4.10;;;;;;;;;;4969980;28;20034;-75
2023/09/21 00:42:41;;;;;;;6.10;3.88;;;;;;;;;;4970116;28;20051;-77
2023/09/21 00:45:08;;;;;;;5.07;3.92;;;;;;;;;;4972894;28;20031;-76
2023/09/21 00:47:41;;;;;;;8.50;3.63;;;;;;;;;;5040144;28;20080;-77
2023/09/21 00:50:10;;;;;;;4.17;3.77;;;;;;;;;;5040531;28;20039;-77
2023/09/21 00:52:37;;;;;;;3.47;3.17;;;;;;;;;;4973635;28;20650;-77
2023/09/21 00:55:05;;;;;;;5.53;2.90;;;;;;;;;;4973266;28;20058;-75
2023/09/21 00:57:32;;;;;;;3.35;2.70;;;;;;;;;;4973849;28;20037;-77
2023/09/21 00:59:58;;;;;;;4.13;3.08;;;;;;;;;;4974079;28;20029;-76
2023/09/21 01:02:23;;;;;;;3.30;3.10;;;;;;;;;;4972439;28;20062;-76
2023/09/21 01:04:48;;;;;;;4.30;3.20;;;;;;;;;;5038487;28;20035;-79
2023/09/21 01:07:21;;;;;;;4.72;3.47;;;;;;;;;;4987915;28;20095;-77
2023/09/21 01:09:49;;;;;;;6.78;3.38;;;;;;;;;;5055874;28;20462;-79
2023/09/21 01:12:14;;;;;;;4.60;3.50;;;;;;;;;;5037675;28;20054;-77
2023/09/21 01:14:40;;;;;;;3.47;3.17;;;;;;;;;;5037991;28;20026;-75
2023/09/21 01:17:05;;;;;;;4.68;3.28;;;;;;;;;;4971206;28;20418;-76
2023/09/21 01:19:30;;;;;;;8.13;3.67;;;;;;;;;;4970631;28;20097;-76
2023/09/21 01:21:59;;;;;;;3.30;3.00;;;;;;;;;;4970826;28;20035;-77
2023/09/21 01:24:27;;;;;;;3.80;3.28;;;;;;;;;;4973571;28;20035;-76
2023/09/21 01:26:52;;;;;;;7.28;3.00;;;;;;;;;;4974360;28;20368;-76
2023/09/21 01:29:18;;;;;;;4.13;3.05;;;;;;;;;;4971966;28;20035;-76
2023/09/21 01:31:43;;;;;;;10.23;2.97;;;;;;;;;;4970295;28;20023;-77
2023/09/21 01:34:09;;;;;;;6.03;3.45;;;;;;;;;;5038578;28;20049;-76
2023/09/21 01:36:34;;;;;;;4.43;3.40;;;;;;;;;;5044795;28;20064;-77
2023/09/21 01:39:00;;;;;;;5.95;4.15;;;;;;;;;;5059975;28;20158;-76
2023/09/21 01:41:25;;;;;;;6.00;4.32;;;;;;;;;;4991380;28;20461;-79
2023/09/21 01:43:50;;;;;;;5.38;4.22;;;;;;;;;;4990468;28;20063;-77
2023/09/21 01:46:21;;;;;;;8.13;4.30;;;;;;;;;;5059543;28;20073;-77
2023/09/21 01:48:46;;;;;;;6.97;4.80;;;;;;;;;;4984570;28;20046;-77
2023/09/21 01:51:12;;;;;;;6.85;5.15;;;;;;;;;;5054628;28;20026;-77
2023/09/21 01:53:38;;;;;;;6.13;4.88;;;;;;;;;;5078037;28;20033;-75
2023/09/21 01:56:04;;;;;;;7.22;4.65;;;;;;;;;;5060451;28;20035;-77
2023/09/21 01:58:30;;;;;;;6.22;4.47;;;;;;;;;;4993431;28;20054;-76
2023/09/21 02:00:56;;;;;;;5.90;4.30;;;;;;;;;;4990333;28;20043;-77
2023/09/21 02:03:29;;;;;;;8.05;4.88;;;;;;;;;;5057477;28;20119;-77
2023/09/21 02:05:57;;;;;;;9.60;4.70;;;;;;;;;;5057391;28;20114;-76
2023/09/21 02:08:23;;;;;;;6.38;4.18;;;;;;;;;;4989331;28;20081;-75
2023/09/21 02:10:50;;;;;;;10.25;4.53;;;;;;;;;;5057986;28;20038;-76
2023/09/21 02:13:16;;;;;;;4.97;4.22;;;;;;;;;;4985008;28;20031;-78
2023/09/21 02:15:43;;;;;;;5.32;4.38;;;;;;;;;;4973137;28;20419;-77
2023/09/21 02:18:09;;;;;;;5.10;4.53;;;;;;;;;;5039483;28;20023;-78
2023/09/21 02:20:38;;;;;;;5.20;4.05;;;;;;;;;;5039945;28;20026;-78
2023/09/21 02:23:04;;;;;;;5.43;4.22;;;;;;;;;;4973160;28;20360;-77
2023/09/21 02:25:31;;;;;;;8.25;4.32;;;;;;;;;;4972687;28;20058;-77
2023/09/21 02:27:57;;;;;;;4.90;3.88;;;;;;;;;;4973073;28;20042;-76
2023/09/21 02:30:23;;;;;;;5.22;4.43;;;;;;;;;;4972324;28;20065;-76
2023/09/21 02:32:53;;;;;;;6.78;4.05;;;;;;;;;;5055864;28;20019;-77
2023/09/21 02:35:29;;;;;;;6.68;4.63;;;;;;;;;;5038584;28;20043;-78
2023/09/21 02:37:56;;;;;;;5.63;3.92;;;;;;;;;;4972676;28;20533;-76
2023/09/21 02:40:23;;;;;;;5.53;3.75;;;;;;;;;;4972114;28;20122;-77
2023/09/21 02:42:53;;;;;;;6.55;4.32;;;;;;;;;;5038501;28;20043;-76
2023/09/21 02:45:20;;;;;;;4.07;3.63;;;;;;;;;;5038964;28;20033;-78
2023/09/21 02:47:46;;;;;;;4.13;3.72;;;;;;;;;;5039571;28;20019;-76
2023/09/21 02:50:21;;;;;;;4.20;3.83;;;;;;;;;;4972025;28;20035;-78
2023/09/21 02:53:06;;;;;;;6.10;4.15;;;;;;;;;;5038833;28;20092;-76
2023/09/21 02:55:33;;;;;;;9.38;4.43;;;;;;;;;;4975508;28;20043;-77
2023/09/21 02:58:19;;;;;;;5.55;3.95;;;;;;;;;;4975716;28;20034;-77
2023/09/21 03:00:45;;;;;;;5.88;4.03;;;;;;;;;;5042403;28;20064;-77
2023/09/21 03:03:13;;;;;;;4.40;3.72;;;;;;;;;;4974885;28;20100;-77
2023/09/21 03:05:39;;;;;;;7.97;3.65;;;;;;;;;;4988854;28;20034;-77
2023/09/21 03:08:13;;;;;;;4.07;3.33;;;;;;;;;;5077228;28;20192;-76
2023/09/21 03:10:47;;;;;;;7.22;4.18;;;;;;;;;;4994101;28;20041;-77
2023/09/21 03:13:18;;;;;;;7.03;4.10;;;;;;;;;;4988700;28;20050;-76
2023/09/21 03:15:54;;;;;;;6.88;4.07;;;;;;;;;;4975061;28;20045;-77
2023/09/21 03:18:21;;;;;;;6.75;4.45;;;;;;;;;;5041823;28;20026;-77
2023/09/21 03:20:48;;;;;;;7.80;4.60;;;;;;;;;;5041968;28;20421;-76
2023/09/21 03:23:15;;;;;;;4.63;3.95;;;;;;;;;;4975470;28;20098;-77
2023/09/21 03:25:42;;;;;;;7.35;4.38;;;;;;;;;;4986498;28;20050;-76
2023/09/21 03:28:15;;;;;;;4.53;3.88;;;;;;;;;;4975412;28;20089;-77
2023/09/21 03:30:49;;;;;;;4.82;4.15;;;;;;;;;;5041762;28;20050;-76
2023/09/21 03:33:16;;;;;;;4.70;3.72;;;;;;;;;;5057892;28;20019;-77
2023/09/21 03:35:41;;;;;;;8.32;4.18;;;;;;;;;;5042109;28;20045;-77
2023/09/21 03:38:12;;;;;;;4.10;3.70;;;;;;;;;;5046827;28;20042;-77
2023/09/21 03:40:37;;;;;;;6.22;4.32;;;;;;;;;;5020375;23;20498;-75
2023/09/21 03:43:15;;;;;;;8.52;4.10;;;;;;;;;;4970279;28;20054;-75
2023/09/21 03:45:42;;;;;;;5.30;4.05;;;;;;;;;;4970729;28;20117;-75
2023/09/21 03:48:09;;;;;;;4.93;3.80;;;;;;;;;;4970360;28;20026;-74
2023/09/21 03:50:35;;;;;;;11.77;3.70;;;;;;;;;;4953506;28;20034;-75
2023/09/21 03:53:05;;;;;;;5.18;3.67;;;;;;;;;;4970133;28;20043;-75
2023/09/21 03:55:34;;;;;;;3.90;3.53;;;;;;;;;;4970241;28;20418;-75
2023/09/21 03:58:00;;;;;;;4.78;3.20;;;;;;;;;;4969814;28;20045;-74
2023/09/21 04:03:01;;;;;;;7.20;3.67;;;;;;;;;;4972963;28;20034;-75
2023/09/21 04:05:29;;;;;;;5.60;3.88;;;;;;;;;;4988825;28;20042;-75
2023/09/21 04:07:54;;;;;;;4.60;4.03;;;;;;;;;;4989505;28;20038;-75
2023/09/21 04:10:20;;;;;;;5.03;4.28;;;;;;;;;;4989579;28;20057;-75
2023/09/21 04:12:46;;;;;;;5.75;4.30;;;;;;;;;;4989327;28;20509;-75
2023/09/21 04:15:12;;;;;;;9.00;4.25;;;;;;;;;;4989434;28;20504;-75
2023/09/21 04:17:40;;;;;;;4.72;4.03;;;;;;;;;;4990045;28;20018;-74
2023/09/21 04:20:12;;;;;;;4.15;3.83;;;;;;;;;;4989168;28;20448;-75
2023/09/21 04:22:42;;;;;;;7.18;3.75;;;;;;;;;;4989363;28;20401;-74
2023/09/21 04:25:10;;;;;;;5.53;4.05;;;;;;;;;;4989380;28;20410;-75
2023/09/21 04:27:39;;;;;;;6.80;4.22;;;;;;;;;;4989293;28;20030;-75
2023/09/21 04:30:09;;;;;;;8.57;4.07;;;;;;;;;;4989362;28;20532;-75
2023/09/21 04:32:36;;;;;;;4.18;3.78;;;;;;;;;;4989499;28;20080;-75
2023/09/21 04:35:05;;;;;;;6.72;4.55;;;;;;;;;;4988965;28;20034;-75
2023/09/21 04:37:33;;;;;;;5.75;3.97;;;;;;;;;;4971474;28;20038;-74
2023/09/21 04:39:59;;;;;;;5.53;3.97;;;;;;;;;;4988967;28;20050;-75
2023/09/21 04:42:27;;;;;;;7.68;3.80;;;;;;;;;;4988517;28;20516;-74
2023/09/21 04:44:55;;;;;;;7.78;3.90;;;;;;;;;;4989017;28;20022;-74
2023/09/21 04:47:20;;;;;;;7.65;4.50;;;;;;;;;;4988206;28;20425;-74
2023/09/21 04:49:45;;;;;;;5.07;3.63;;;;;;;;;;4988213;28;20041;-75
2023/09/21 04:52:11;;;;;;;7.22;4.03;;;;;;;;;;4988213;28;20031;-74
2023/09/21 04:54:36;;;;;;;7.72;4.53;;;;;;;;;;4988173;28;20490;-75
2023/09/21 04:57:01;;;;;;;5.38;4.72;;;;;;;;;;4988679;28;20028;-74
2023/09/21 04:59:27;;;;;;;8.70;4.60;;;;;;;;;;4988337;28;20039;-75
2023/09/21 05:01:53;;;;;;;5.95;4.63;;;;;;;;;;4987995;28;20041;-75
2023/09/21 05:04:19;;;;;;;9.82;4.38;;;;;;;;;;4988031;28;20048;-74
2023/09/21 05:06:45;;;;;;;6.63;4.70;;;;;;;;;;4987957;28;20031;-74
2023/09/21 05:09:11;;;;;;;6.03;3.95;;;;;;;;;;4987938;28;20527;-74
2023/09/21 05:11:38;;;;;;;4.75;3.97;;;;;;;;;;4988647;28;20030;-74
2023/09/21 05:14:08;;;;;;;6.50;4.22;;;;;;;;;;4988065;28;20037;-74
2023/09/21 05:16:33;;;;;;;4.07;3.53;;;;;;;;;;4969880;28;20035;-74
2023/09/21 05:18:59;;;;;;;7.53;3.63;;;;;;;;;;4974919;28;20041;-74
2023/09/21 05:21:24;;;;;;;9.02;4.28;;;;;;;;;;4951028;28;20402;-74
2023/09/21 05:23:50;;;;;;;8.52;4.88;;;;;;;;;;4969074;28;20038;-74
2023/09/21 05:26:15;;;;;;;8.23;5.13;;;;;;;;;;4951153;28;20047;-74
2023/09/21 05:28:40;;;;;;;21.67;5.57;;;;;;;;;;4968283;28;20084;-74
2023/09/21 05:31:09;;;;;;;11.63;5.82;;;;;;;;;;4968387;28;20399;-75
2023/09/21 05:33:38;;;;;;;7.32;4.50;;;;;;;;;;4968239;28;20033;-74
2023/09/21 05:36:06;;;;;;;7.05;3.55;;;;;;;;;;4968093;28;20023;-74
2023/09/21 05:38:37;;;;;;;7.57;3.22;;;;;;;;;;4968712;28;20023;-74
2023/09/21 05:41:03;;;;;;;5.80;3.45;;;;;;;;;;4950747;28;20039;-74
2023/09/21 05:43:29;;;;;;;3.47;2.97;;;;;;;;;;4968385;28;20506;-74
2023/09/21 05:45:54;;;;;;;6.18;2.90;;;;;;;;;;4968168;28;20053;-74
2023/09/21 05:48:19;;;;;;;4.50;3.13;;;;;;;;;;4950892;28;20022;-74
2023/09/21 05:50:45;;;;;;;3.13;2.90;;;;;;;;;;4968601;28;20035;-74
2023/09/21 05:53:11;;;;;;;3.47;2.97;;;;;;;;;;4968122;28;20035;-75
2023/09/21 05:55:36;;;;;;;3.30;2.90;;;;;;;;;;4968142;28;20039;-74
2023/09/21 05:58:03;;;;;;;8.45;2.92;;;;;;;;;;4967932;28;20066;-74
2023/09/21 06:00:28;;;;;;;4.43;3.00;;;;;;;;;;4967981;28;20590;-75
2023/09/21 06:02:54;;;;;;;6.30;3.10;;;;;;;;;;4968596;28;20023;-75
2023/09/21 06:05:19;;;;;;;3.92;2.90;;;;;;;;;;4968136;28;20035;-74
2023/09/21 06:07:44;;;;;;;3.72;2.92;;;;;;;;;;4968018;28;20422;-75
2023/09/21 06:10:10;;;;;;;8.07;2.95;;;;;;;;;;4967776;28;20039;-75
2023/09/21 06:12:35;;;;;;;3.03;2.70;;;;;;;;;;4967806;28;20031;-74
2023/09/21 06:15:00;;;;;;;4.72;3.00;;;;;;;;;;4968402;28;20027;-75
2023/09/21 06:17:26;;;;;;;2.95;2.53;;;;;;;;;;4968510;28;20456;-74
2023/09/21 06:19:53;;;;;;;3.08;2.50;;;;;;;;;;4968139;28;20038;-74
2023/09/21 06:22:18;;;;;;;4.72;2.20;;;;;;;;;;4967931;28;20534;-74
2023/09/21 06:24:44;;;;;;;3.92;2.70;;;;;;;;;;4967793;28;20126;-74
2023/09/21 06:27:10;;;;;;;4.15;2.90;;;;;;;;;;4967790;28;20080;-75
2023/09/21 06:29:35;;;;;;;2.60;2.30;;;;;;;;;;4970375;28;20026;-74
2023/09/21 06:32:01;;;;;;;4.18;2.97;;;;;;;;;;4971162;28;20023;-74
2023/09/21 06:34:26;;;;;;;3.70;2.85;;;;;;;;;;4971470;28;20110;-75
2023/09/21 06:36:52;;;;;;;2.50;2.30;;;;;;;;;;4955989;28;20035;-74
2023/09/21 06:39:19;;;;;;;7.93;2.22;;;;;;;;;;4974789;28;20707;-74
2023/09/21 06:41:45;;;;;;;4.15;2.38;;;;;;;;;;4967817;28;20031;-74
2023/09/21 06:44:10;;;;;;;3.33;2.20;;;;;;;;;;4985498;28;20051;-74
2023/09/21 06:46:36;;;;;;;3.30;1.88;;;;;;;;;;4976929;28;20046;-74
2023/09/21 06:49:03;;;;;;;5.20;2.40;;;;;;;;;;4972258;28;20554;-75
2023/09/21 06:51:28;;;;;;;5.20;2.10;;;;;;;;;;4981229;28;20736;-73
2023/09/21 06:53:53;;;;;;;8.60;2.13;;;;;;;;;;4975103;28;20030;-73
2023/09/21 06:56:21;;;;;;;5.05;1.90;;;;;;;;;;4968866;28;20027;-73
2023/09/21 06:58:47;;;;;;;6.55;2.20;;;;;;;;;;4961159;28;20491;-74
2023/09/21 07:01:12;;;;;;;3.13;1.83;;;;;;;;;;4971914;28;20038;-75
2023/09/21 07:03:37;;;;;;;1.88;1.60;;;;;;;;;;4969200;28;20053;-74
2023/09/21 07:06:03;;;;;;;2.85;1.90;;;;;;;;;;4971640;28;20043;-74
2023/09/21 07:08:28;;;;;;;2.25;1.88;;;;;;;;;;4976598;28;20035;-74
2023/09/21 07:10:53;;;;;;;1.70;1.60;;;;;;;;;;4973970;28;20035;-74
2023/09/21 07:13:19;;;;;;;5.35;1.90;;;;;;;;;;4974843;28;20050;-74
2023/09/21 07:15:45;;;;;;;5.05;1.88;;;;;;;;;;4975695;28;20054;-74
2023/09/21 07:18:12;;;;;;;7.50;2.30;;;;;;;;;;4977212;28;20447;-74
2023/09/21 07:20:38;;;;;;;3.22;2.10;;;;;;;;;;4980432;28;20041;-74
2023/09/21 07:23:03;;;;;;;2.58;2.17;;;;;;;;;;4973734;28;20058;-74
2023/09/21 07:25:29;;;;;;;2.38;2.20;;;;;;;;;;4971050;28;20045;-74
2023/09/21 07:27:55;;;;;;;2.15;1.80;;;;;;;;;;4974714;28;20058;-74
2023/09/21 07:30:21;;;;;;;3.88;1.90;;;;;;;;;;4969067;28;20023;-74
2023/09/21 07:32:47;;;;;;;7.03;2.00;;;;;;;;;;4969337;28;20077;-74
2023/09/21 07:35:14;;;;;;;1.77;1.60;;;;;;;;;;4976330;28;20062;-74
2023/09/21 07:37:39;;;;;;;2.00;1.60;;;;;;;;;;4974193;28;20030;-74
2023/09/21 07:40:06;;;;;;;2.28;1.95;;;;;;;;;;4960797;28;20046;-74
2023/09/21 07:42:34;;;;;;;2.17;1.80;;;;;;;;;;4972492;28;20437;-74
2023/09/21 07:45:00;;;;;;;2.58;1.75;;;;;;;;;;4968741;28;20034;-75
2023/09/21 07:47:26;;;;;;;4.53;1.50;;;;;;;;;;4970645;28;20031;-74
2023/09/21 07:49:54;;;;;;;2.38;1.70;;;;;;;;;;4975657;28;20114;-75
2023/09/21 07:52:23;;;;;;;1.85;1.73;;;;;;;;;;4971895;28;20037;-74
2023/09/21 07:54:51;;;;;;;6.07;1.90;;;;;;;;;;4972127;28;20278;-74
2023/09/21 07:57:16;;;;;;;3.05;1.75;;;;;;;;;;4974600;28;20023;-74
2023/09/21 07:59:42;;;;;;;3.28;2.00;;;;;;;;;;4976073;28;20560;-74
2023/09/21 08:02:09;;;;;;;2.53;1.63;;;;;;;;;;4977280;28;20479;-74
2023/09/21 08:04:34;;;;;;;4.18;2.10;;;;;;;;;;4970730;28;20170;-74
2023/09/21 08:07:00;;;;;;;2.22;2.00;;;;;;;;;;4972838;28;20084;-74
2023/09/21 08:09:26;;;;;;;4.30;1.92;;;;;;;;;;4964545;28;20043;-74
2023/09/21 08:11:51;;;;;;;3.10;2.20;;;;;;;;;;4975780;28;20038;-74
2023/09/21 08:14:17;;;;;;;2.33;2.10;;;;;;;;;;4957259;28;20085;-75
2023/09/21 08:16:42;;;;;;;2.63;1.98;;;;;;;;;;4976024;28;20148;-75
2023/09/21 08:19:07;;;;;;;3.70;1.85;;;;;;;;;;4978194;28;20042;-74
2023/09/21 08:21:33;;;;;;;2.70;1.80;;;;;;;;;;4969288;28;20042;-74
2023/09/21 08:23:59;;;;;;;4.07;2.05;;;;;;;;;;4964296;28;20034;-74
2023/09/21 08:26:25;;;;;;;3.55;1.70;;;;;;;;;;4971993;28;20686;-74
2023/09/21 08:28:52;;;;;;;1.90;1.70;;;;;;;;;;4978454;28;20062;-74
2023/09/21 08:31:19;;;;;;;3.10;2.03;;;;;;;;;;4973743;28;20031;-75
2023/09/21 08:33:46;;;;;;;2.17;1.63;;;;;;;;;;4971144;28;20065;-74
2023/09/21 08:36:15;;;;;;;6.25;1.80;;;;;;;;;;4957210;28;20410;-74
2023/09/21 08:38:41;;;;;;;4.15;2.10;;;;;;;;;;4986232;28;20022;-74
2023/09/21 08:41:06;;;;;;;2.08;1.75;;;;;;;;;;4975914;28;20406;-74
2023/09/21 08:43:32;;;;;;;2.60;2.00;;;;;;;;;;4975662;28;20039;-74
2023/09/21 08:45:58;;;;;;;2.22;2.03;;;;;;;;;;4975428;28;20327;-74
2023/09/21 08:48:23;;;;;;;6.32;2.00;;;;;;;;;;4967586;28;20042;-74
2023/09/21 08:50:50;;;;;;;2.45;1.98;;;;;;;;;;4974815;28;20424;-74
2023/09/21 08:53:22;;;;;;;2.65;2.03;;;;;;;;;;4980500;28;20383;-74
2023/09/21 08:55:52;;;;;;;2.33;2.00;;;;;;;;;;4976613;28;20046;-74
2023/09/21 08:58:27;;;;;;;2.35;1.88;;;;;;;;;;4975110;28;20034;-74
2023/09/21 09:00:54;;;;;;;1.77;1.63;;;;;;;;;;4978205;28;20044;-74
2023/09/21 09:03:26;;;;;;;4.10;1.83;;;;;;;;;;4966871;28;20038;-74
2023/09/21 09:05:58;;;;;;;3.17;1.63;;;;;;;;;;4968860;28;20038;-74
2023/09/21 09:08:24;;;;;;;1.88;1.65;;;;;;;;;;4970882;28;20050;-74
2023/09/21 09:10:53;;;;;;;2.25;1.55;;;;;;;;;;4969910;28;20402;-74
2023/09/21 09:13:19;;;;;;;1.38;1.30;;;;;;;;;;4970421;28;20043;-74
2023/09/21 09:15:45;;;;;;;2.88;1.48;;;;;;;;;;4966677;28;20047;-74
2023/09/21 09:18:15;;;;;;;1.50;1.40;;;;;;;;;;4971606;28;20035;-74
2023/09/21 09:20:43;;;;;;;2.65;1.60;;;;;;;;;;4971850;28;20121;-73
2023/09/21 09:23:10;;;;;;;1.60;1.50;;;;;;;;;;4974557;28;20156;-74
2023/09/21 09:25:37;;;;;;;3.63;1.45;;;;;;;;;;4976599;28;20042;-73
2023/09/21 09:28:04;;;;;;;1.77;1.27;;;;;;;;;;4985129;28;20034;-74
2023/09/21 09:30:29;;;;;;;4.10;1.52;;;;;;;;;;4972816;28;20403;-74
2023/09/21 09:32:55;;;;;;;7.05;1.42;;;;;;;;;;4972990;28;20030;-74
2023/09/21 09:35:21;;;;;;;1.58;1.40;;;;;;;;;;4983869;28;20039;-74
2023/09/21 09:37:47;;;;;;;1.60;1.50;;;;;;;;;;4977429;28;20050;-74
2023/09/21 09:40:13;;;;;;;1.52;1.42;;;;;;;;;;5042563;23;20332;-76
2023/09/21 09:42:40;;;;;;;2.13;1.50;;;;;;;;;;5078813;28;20051;-74
2023/09/21 09:45:10;;;;;;;1.95;1.50;;;;;;;;;;5078626;28;20017;-76
2023/09/21 09:47:36;;;;;;;2.15;1.40;;;;;;;;;;5083140;28;20101;-76
2023/09/21 09:50:03;;;;;;;3.10;1.42;;;;;;;;;;5074722;28;20448;-76
2023/09/21 09:52:30;;;;;;;2.05;1.40;;;;;;;;;;5052187;28;20695;-76
2023/09/21 09:54:59;;;;;;;2.72;2.42;;;;;;;;;;5069228;28;21119;-76
2023/09/21 09:57:26;;;;;;;3.20;1.42;;;;;;;;;;5059713;28;20052;-76
2023/09/21 09:59:53;;;;;;;3.38;1.80;;;;;;;;;;5077771;28;20119;-76
2023/09/21 10:02:20;;;;;;;4.65;1.50;;;;;;;;;;5070205;28;20629;-76
2023/09/21 10:04:49;;;;;;;1.70;1.50;;;;;;;;;;5061426;28;20063;-76
2023/09/21 10:07:17;;;;;;;1.73;1.30;;;;;;;;;;5056582;28;20132;-76
2023/09/21 10:09:45;;;;;;;1.55;1.35;;;;;;;;;;5062648;28;20037;-76
2023/09/21 10:12:11;;;;;;;1.77;1.50;;;;;;;;;;5062349;28;20544;-76
2023/09/21 10:14:43;;;;;;;2.28;1.65;;;;;;;;;;5064846;28;20377;-76
2023/09/21 10:17:10;;;;;;;3.75;1.88;;;;;;;;;;5065077;28;20036;-76
2023/09/21 10:19:38;;;;;;;1.98;1.42;;;;;;;;;;5065817;28;20068;-76
2023/09/21 10:22:26;;;;;;;1.23;1.13;;;;;;;;;;5065166;28;20083;-76
2023/09/21 10:24:55;;;;;;;1.48;1.40;;;;;;;;;;5063021;28;20082;-76
2023/09/21 10:27:24;;;;;;;1.58;1.48;;;;;;;;;;5062299;28;20334;-76
2023/09/21 10:29:58;;;;;;;2.03;1.40;;;;;;;;;;5066678;28;20090;-74
2023/09/21 10:32:24;;;;;;;6.60;1.52;;;;;;;;;;5061477;28;20036;-74
2023/09/21 10:34:50;;;;;;;2.08;1.42;;;;;;;;;;5066595;28;20028;-74
2023/09/21 10:37:25;;;;;;;3.20;1.40;;;;;;;;;;5062993;28;20075;-76
2023/09/21 10:39:57;;;;;;;1.40;1.30;;;;;;;;;;5062967;28;20089;-76
2023/09/21 10:42:29;;;;;;;4.93;1.50;;;;;;;;;;5063783;28;20025;-76
2023/09/21 10:44:58;;;;;;;1.65;1.48;;;;;;;;;;5064640;28;20506;-76
2023/09/21 10:47:29;;;;;;;1.65;1.30;;;;;;;;;;5064070;28;20271;-76
2023/09/21 10:49:56;;;;;;;2.70;1.58;;;;;;;;;;5067405;28;20060;-76
2023/09/21 10:52:21;;;;;;;2.35;1.60;;;;;;;;;;5064702;28;20463;-76
2023/09/21 10:54:47;;;;;;;2.45;1.58;;;;;;;;;;5060232;28;20037;-76
2023/09/21 10:57:13;;;;;;;1.52;1.42;;;;;;;;;;5065017;28;20479;-74
2023/09/21 10:59:38;;;;;;;1.40;1.30;;;;;;;;;;5067448;28;20017;-75
2023/09/21 11:02:04;;;;;;;1.40;1.30;;;;;;;;;;5065769;28;20028;-75
2023/09/21 11:04:31;;;;;;;1.27;1.20;;;;;;;;;;5065967;28;20396;-75
2023/09/21 11:06:56;;;;;;;1.55;1.30;;;;;;;;;;5061660;28;20565;-75
2023/09/21 11:09:21;;;;;;;3.38;1.20;;;;;;;;;;5062784;28;20032;-75
2023/09/21 11:11:47;;;;;;;1.55;1.40;;;;;;;;;;5065524;28;20048;-75
2023/09/21 11:14:12;;;;;;;3.05;1.30;;;;;;;;;;5065066;28;20040;-75
2023/09/21 11:16:37;;;;;;;1.27;1.17;;;;;;;;;;5064836;28;20037;-75
2023/09/21 11:19:05;;;;;;;3.83;1.50;;;;;;;;;;5062995;28;20056;-75
2023/09/21 11:21:31;;;;;;;1.88;1.15;;;;;;;;;;5066249;28;20048;-75
2023/09/21 11:23:56;;;;;;;3.33;1.52;;;;;;;;;;5068389;28;20059;-75
2023/09/21 11:26:22;;;;;;;1.40;1.30;;;;;;;;;;5062146;28;20029;-75
2023/09/21 11:28:57;;;;;;;3.20;1.23;;;;;;;;;;5064690;28;20044;-75
2023/09/21 11:31:22;;;;;;;2.97;1.50;;;;;;;;;;5064250;28;20028;-76
2023/09/21 11:33:47;;;;;;;7.88;1.40;;;;;;;;;;5064690;28;20059;-76
2023/09/21 11:36:13;;;;;;;2.90;1.83;;;;;;;;;;5062805;28;20115;-76
2023/09/21 11:38:41;;;;;;;2.03;1.30;;;;;;;;;;5065363;28;20021;-75
2023/09/21 11:41:06;;;;;;;3.10;1.38;;;;;;;;;;5055423;28;20068;-75
2023/09/21 11:43:31;;;;;;;1.42;1.33;;;;;;;;;;5055142;28;20115;-76
2023/09/21 11:46:00;;;;;;;4.57;2.40;;;;;;;;;;5059885;28;20041;-75
2023/09/21 11:48:29;;;;;;;3.25;1.92;;;;;;;;;;5048652;28;20089;-76
2023/09/21 11:50:54;;;;;;;2.03;1.70;;;;;;;;;;5059736;28;20051;-76
2023/09/21 11:53:20;;;;;;;2.72;1.67;;;;;;;;;;5053047;28;20045;-76
2023/09/21 11:55:46;;;;;;;4.90;1.23;;;;;;;;;;5057123;28;20552;-75
2023/09/21 11:58:15;;;;;;;2.28;1.40;;;;;;;;;;5059688;28;20040;-75
2023/09/21 12:03:51;;;;;;;7.03;1.60;;;;;;;;;;5059085;28;20140;-76
2023/09/21 12:06:16;;;;;;;1.42;1.33;;;;;;;;;;5043053;28;20488;-75
2023/09/21 12:08:41;;;;;;;2.25;1.20;;;;;;;;;;5059909;28;20047;-75
2023/09/21 12:11:07;;;;;;;2.83;1.40;;;;;;;;;;5050379;28;20135;-75
2023/09/21 12:13:35;;;;;;;1.33;1.13;;;;;;;;;;5062859;28;20020;-75
2023/09/21 12:16:02;;;;;;;2.80;1.15;;;;;;;;;;5062101;28;20423;-78
2023/09/21 12:18:28;;;;;;;1.42;1.10;;;;;;;;;;5059030;28;20037;-76
2023/09/21 12:20:56;;;;;;;2.92;1.38;;;;;;;;;;5064337;28;20027;-75
2023/09/21 12:23:23;;;;;;;1.33;1.33;;;;;;;;;;5060218;28;20040;-75
2023/09/21 12:25:48;;;;;;;2.75;1.10;;;;;;;;;;5063883;28;20408;-75
2023/09/21 12:28:14;;;;;;;1.42;1.10;;;;;;;;;;5065122;28;20066;-75
2023/09/21 12:30:42;;;;;;;1.25;1.15;;;;;;;;;;5063768;28;20424;-75
2023/09/21 12:33:08;;;;;;;4.65;1.10;;;;;;;;;;5060088;28;20159;-76
2023/09/21 12:35:33;;;;;;;2.47;1.10;;;;;;;;;;5056338;28;20853;-75
2023/09/21 12:37:59;;;;;;;1.92;1.38;;;;;;;;;;5054081;28;20454;-76
2023/09/21 12:40:24;;;;;;;1.77;1.33;;;;;;;;;;5064652;28;20127;-76
2023/09/21 12:42:52;;;;;;;1.88;1.27;;;;;;;;;;5063831;28;20029;-76
2023/09/21 12:45:17;;;;;;;1.73;1.40;;;;;;;;;;5059465;28;20020;-76
2023/09/21 12:48:07;;;;;;;1.45;1.35;;;;;;;;;;5103195;27;20343;-75
2023/09/21 12:50:33;;;;;;;2.88;1.60;;;;;;;;;;5060281;28;20125;-75
2023/09/21 12:52:59;;;;;;;2.50;1.30;;;;;;;;;;5054523;28;20443;-75
2023/09/21 12:55:24;;;;;;;2.63;1.20;;;;;;;;;;5049002;28;20044;-75
2023/09/21 12:57:50;;;;;;;2.50;1.00;;;;;;;;;;5056131;28;20037;-75
2023/09/21 13:00:22;;;;;;;2.05;1.20;;;;;;;;;;5053397;28;20511;-75
2023/09/21 13:02:48;;;;;;;1.30;1.10;;;;;;;;;;5048000;28;20037;-75
2023/09/21 13:05:13;;;;;;;1.25;1.15;;;;;;;;;;5057788;28;20036;-76
2023/09/21 13:07:42;;;;;;;3.30;1.30;;;;;;;;;;5050518;28;20041;-75
2023/09/21 13:10:09;;;;;;;1.30;1.20;;;;;;;;;;5062522;28;20037;-75
2023/09/21 13:12:37;;;;;;;1.20;1.10;;;;;;;;;;5054253;28;20478;-75
2023/09/21 13:15:04;;;;;;;1.50;1.40;;;;;;;;;;5059376;28;20389;-76
2023/09/21 13:17:31;;;;;;;2.00;1.20;;;;;;;;;;5052699;28;20540;-76
2023/09/21 13:19:59;;;;;;;1.85;1.40;;;;;;;;;;5060546;28;20496;-75
2023/09/21 13:22:25;;;;;;;1.60;1.20;;;;;;;;;;5057537;28;20063;-75
2023/09/21 13:24:51;;;;;;;1.40;1.30;;;;;;;;;;5052948;28;20045;-75
2023/09/21 13:27:17;;;;;;;1.27;1.20;;;;;;;;;;5059751;28;20083;-76
2023/09/21 13:29:42;;;;;;;1.45;1.20;;;;;;;;;;5052864;28;20032;-75
2023/09/21 13:32:09;;;;;;;2.80;1.40;;;;;;;;;;5055464;28;20044;-76
2023/09/21 13:34:35;;;;;;;1.60;1.50;;;;;;;;;;5048010;28;20037;-76
2023/09/21 13:37:01;;;;;;;3.75;1.30;;;;;;;;;;5050356;28;20115;-75
2023/09/21 13:39:26;;;;;;;2.38;1.70;;;;;;;;;;5049114;28;20045;-75
2023/09/21 13:41:53;;;;;;;1.75;1.20;;;;;;;;;;5050537;28;20109;-76
2023/09/21 13:44:19;;;;;;;1.50;1.30;;;;;;;;;;5053523;28;20056;-75
2023/09/21 13:46:45;;;;;;;1.25;1.15;;;;;;;;;;5054802;28;20068;-75
2023/09/21 13:49:10;;;;;;;1.20;1.20;;;;;;;;;;5057197;28;20044;-75
2023/09/21 13:51:36;;;;;;;1.92;1.50;;;;;;;;;;5055476;28;20050;-75
2023/09/21 13:54:04;;;;;;;1.10;1.08;;;;;;;;;;5043387;28;20103;-75
2023/09/21 13:56:29;;;;;;;2.55;1.27;;;;;;;;;;5051481;28;20037;-76
2023/09/21 13:58:56;;;;;;;2.10;1.10;;;;;;;;;;5045335;28;20084;-76
2023/09/21 14:01:21;;;;;;;1.40;1.30;;;;;;;;;;5033309;28;20432;-75
2023/09/21 14:03:47;;;;;;;1.30;1.20;;;;;;;;;;5034753;28;20041;-76
2023/09/21 14:06:12;;;;;;;1.83;1.30;;;;;;;;;;5040083;28;20493;-77
2023/09/21 14:08:38;;;;;;;1.98;1.40;;;;;;;;;;5037607;28;20880;-75
2023/09/21 14:11:04;;;;;;;8.70;1.17;;;;;;;;;;5035390;28;20040;-75
2023/09/21 14:13:29;;;;;;;3.35;1.15;;;;;;;;;;5036252;28;20040;-75
2023/09/21 14:15:54;;;;;;;1.20;1.10;;;;;;;;;;5030304;28;20033;-76
2023/09/21 14:18:20;;;;;;;1.30;1.30;;;;;;;;;;5036501;28;20397;-75
2023/09/21 14:20:45;;;;;;;1.27;1.20;;;;;;;;;;5030014;28;20055;-75
2023/09/21 14:23:10;;;;;;;1.30;1.20;;;;;;;;;;5033532;28;20033;-75
2023/09/21 14:25:36;;;;;;;1.00;1.00;;;;;;;;;;5040346;28;20771;-75
2023/09/21 14:28:01;;;;;;;1.88;1.30;;;;;;;;;;5032847;28;20050;-75
2023/09/21 14:30:26;;;;;;;2.97;1.00;;;;;;;;;;5033096;28;20048;-75
2023/09/21 14:32:54;;;;;;;1.55;1.00;;;;;;;;;;5037276;28;20427;-75
2023/09/21 14:35:19;;;;;;;1.20;1.10;;;;;;;;;;5035154;28;20986;-75
2023/09/21 14:37:44;;;;;;;1.33;0.98;;;;;;;;;;5039280;28;20041;-75
2023/09/21 14:40:10;;;;;;;1.02;0.95;;;;;;;;;;5038657;28;20047;-75
2023/09/21 14:42:36;;;;;;;1.20;1.10;;;;;;;;;;5039598;28;20476;-75
2023/09/21 14:45:02;;;;;;;1.23;1.10;;;;;;;;;;5038941;28;20071;-75
2023/09/21 14:47:28;;;;;;;1.23;1.15;;;;;;;;;;5034868;28;20088;-77